sensor_id;sensor_type;location;lat;lon;timestamp;P1;durP1;ratioP1;P2;durP2;ratioP2
359;SDS011;168;48.872;9.226;2023-12-07T00:00:45;11.53;;;8.50;;
359;SDS011;168;48.872;9.226;2023-12-07T00:03:11;10.27;;;8.70;;
359;SDS011;168;48.872;9.226;2023-12-07T00:05:40;10.00;;;8.80;;
359;SDS011;168;48.872;9.226;2023-12-07T00:08:09;10.40;;;9.30;;
359;SDS011;168;48.872;9.226;2023-12-07T00:10:38;10.27;;;8.97;;
359;SDS011;168;48.872;9.226;2023-12-07T00:13:05;9.37;;;8.30;;
359;SDS011;168;48.872;9.226;2023-12-07T00:15:33;11.13;;;9.00;;
359;SDS011;168;48.872;9.226;2023-12-07T00:18:00;9.40;;;8.10;;
359;SDS011;168;48.872;9.226;2023-12-07T00:20:28;11.63;;;8.67;;
359;SDS011;168;48.872;9.226;2023-12-07T00:22:56;9.83;;;8.83;;
359;SDS011;168;48.872;9.226;2023-12-07T00:25:23;10.33;;;8.67;;
359;SDS011;168;48.872;9.226;2023-12-07T00:27:52;12.50;;;8.80;;
359;SDS011;168;48.872;9.226;2023-12-07T00:30:19;13.30;;;8.70;;
359;SDS011;168;48.872;9.226;2023-12-07T00:32:47;9.83;;;8.83;;
359;SDS011;168;48.872;9.226;2023-12-07T00:35:14;11.50;;;10.03;;
359;SDS011;168;48.872;9.226;2023-12-07T00:37:43;10.23;;;8.33;;
359;SDS011;168;48.872;9.226;2023-12-07T00:40:10;10.77;;;8.70;;
359;SDS011;168;48.872;9.226;2023-12-07T00:42:39;9.00;;;8.20;;
359;SDS011;168;48.872;9.226;2023-12-07T00:45:08;10.50;;;9.40;;
359;SDS011;168;48.872;9.226;2023-12-07T00:47:35;9.37;;;7.90;;
359;SDS011;168;48.872;9.226;2023-12-07T00:50:03;8.90;;;7.97;;
359;SDS011;168;48.872;9.226;2023-12-07T00:52:31;8.80;;;7.70;;
359;SDS011;168;48.872;9.226;2023-12-07T00:54:58;9.43;;;8.43;;
359;SDS011;168;48.872;9.226;2023-12-07T00:57:26;9.07;;;8.17;;
359;SDS011;168;48.872;9.226;2023-12-07T00:59:53;9.50;;;8.53;;
359;SDS011;168;48.872;9.226;2023-12-07T01:02:21;8.40;;;7.50;;
359;SDS011;168;48.872;9.226;2023-12-07T01:04:49;10.77;;;8.27;;
359;SDS011;168;48.872;9.226;2023-12-07T01:07:17;9.07;;;8.17;;
359;SDS011;168;48.872;9.226;2023-12-07T01:09:44;9.90;;;8.40;;
359;SDS011;168;48.872;9.226;2023-12-07T01:12:11;9.50;;;8.50;;
359;SDS011;168;48.872;9.226;2023-12-07T01:14:39;9.50;;;8.60;;
359;SDS011;168;48.872;9.226;2023-12-07T01:17:06;9.80;;;8.80;;
359;SDS011;168;48.872;9.226;2023-12-07T01:19:35;10.13;;;8.97;;
359;SDS011;168;48.872;9.226;2023-12-07T01:22:02;11.80;;;8.97;;
359;SDS011;168;48.872;9.226;2023-12-07T01:24:30;9.60;;;8.60;;
359;SDS011;168;48.872;9.226;2023-12-07T01:26:57;11.77;;;8.97;;
359;SDS011;168;48.872;9.226;2023-12-07T01:29:25;10.67;;;8.60;;
359;SDS011;168;48.872;9.226;2023-12-07T01:31:52;10.50;;;9.13;;
359;SDS011;168;48.872;9.226;2023-12-07T01:34:19;11.57;;;9.10;;
359;SDS011;168;48.872;9.226;2023-12-07T01:39:19;10.00;;;8.90;;
359;SDS011;168;48.872;9.226;2023-12-07T01:41:47;10.27;;;8.70;;
359;SDS011;168;48.872;9.226;2023-12-07T01:44:14;10.03;;;9.03;;
359;SDS011;168;48.872;9.226;2023-12-07T01:46:42;10.30;;;9.20;;
359;SDS011;168;48.872;9.226;2023-12-07T01:49:09;11.33;;;8.20;;
359;SDS011;168;48.872;9.226;2023-12-07T01:51:37;9.67;;;8.40;;
359;SDS011;168;48.872;9.226;2023-12-07T01:54:04;11.30;;;8.60;;
359;SDS011;168;48.872;9.226;2023-12-07T01:56:33;10.20;;;8.83;;
359;SDS011;168;48.872;9.226;2023-12-07T01:59:01;10.57;;;9.47;;
359;SDS011;168;48.872;9.226;2023-12-07T02:01:30;11.77;;;9.93;;
359;SDS011;168;48.872;9.226;2023-12-07T02:03:57;10.27;;;9.13;;
359;SDS011;168;48.872;9.226;2023-12-07T02:06:24;12.60;;;9.40;;
359;SDS011;168;48.872;9.226;2023-12-07T02:08:52;10.50;;;8.97;;
359;SDS011;168;48.872;9.226;2023-12-07T02:11:19;11.07;;;8.73;;
359;SDS011;168;48.872;9.226;2023-12-07T02:13:48;10.17;;;9.17;;
359;SDS011;168;48.872;9.226;2023-12-07T02:16:21;10.43;;;8.93;;
359;SDS011;168;48.872;9.226;2023-12-07T02:18:59;9.93;;;8.90;;
359;SDS011;168;48.872;9.226;2023-12-07T02:21:36;11.33;;;8.90;;
359;SDS011;168;48.872;9.226;2023-12-07T02:24:07;10.07;;;7.90;;
359;SDS011;168;48.872;9.226;2023-12-07T02:26:39;12.10;;;9.50;;
359;SDS011;168;48.872;9.226;2023-12-07T02:29:06;11.37;;;9.47;;
359;SDS011;168;48.872;9.226;2023-12-07T02:31:34;12.27;;;9.87;;
359;SDS011;168;48.872;9.226;2023-12-07T02:34:01;11.90;;;9.70;;
359;SDS011;168;48.872;9.226;2023-12-07T02:36:29;10.00;;;8.87;;
359;SDS011;168;48.872;9.226;2023-12-07T02:38:58;11.10;;;9.27;;
359;SDS011;168;48.872;9.226;2023-12-07T02:41:29;9.60;;;8.60;;
359;SDS011;168;48.872;9.226;2023-12-07T02:43:59;11.27;;;9.30;;
359;SDS011;168;48.872;9.226;2023-12-07T02:46:27;11.57;;;9.63;;
359;SDS011;168;48.872;9.226;2023-12-07T02:48:56;10.13;;;9.03;;
359;SDS011;168;48.872;9.226;2023-12-07T02:51:24;12.47;;;9.57;;
359;SDS011;168;48.872;9.226;2023-12-07T02:53:51;10.20;;;9.07;;
359;SDS011;168;48.872;9.226;2023-12-07T02:56:18;10.77;;;8.20;;
359;SDS011;168;48.872;9.226;2023-12-07T02:58:46;10.50;;;9.00;;
359;SDS011;168;48.872;9.226;2023-12-07T03:01:15;10.73;;;8.90;;
359;SDS011;168;48.872;9.226;2023-12-07T03:03:42;10.60;;;9.50;;
359;SDS011;168;48.872;9.226;2023-12-07T03:06:09;11.17;;;10.00;;
359;SDS011;168;48.872;9.226;2023-12-07T03:08:37;11.87;;;9.50;;
359;SDS011;168;48.872;9.226;2023-12-07T03:11:04;11.93;;;9.70;;
359;SDS011;168;48.872;9.226;2023-12-07T03:13:32;14.47;;;10.80;;
359;SDS011;168;48.872;9.226;2023-12-07T03:15:59;12.07;;;9.70;;
359;SDS011;168;48.872;9.226;2023-12-07T03:18:28;11.10;;;9.97;;
359;SDS011;168;48.872;9.226;2023-12-07T03:20:55;11.50;;;10.30;;
359;SDS011;168;48.872;9.226;2023-12-07T03:23:23;11.70;;;10.47;;
359;SDS011;168;48.872;9.226;2023-12-07T03:25:50;11.80;;;10.60;;
359;SDS011;168;48.872;9.226;2023-12-07T03:28:18;12.17;;;10.40;;
359;SDS011;168;48.872;9.226;2023-12-07T03:30:45;13.17;;;11.40;;
359;SDS011;168;48.872;9.226;2023-12-07T03:33:12;12.73;;;11.40;;
359;SDS011;168;48.872;9.226;2023-12-07T03:35:41;15.87;;;11.80;;
359;SDS011;168;48.872;9.226;2023-12-07T03:38:09;12.37;;;11.07;;
359;SDS011;168;48.872;9.226;2023-12-07T03:40:36;11.90;;;10.67;;
359;SDS011;168;48.872;9.226;2023-12-07T03:43:03;13.23;;;11.17;;
359;SDS011;168;48.872;9.226;2023-12-07T03:45:30;13.67;;;10.97;;
359;SDS011;168;48.872;9.226;2023-12-07T03:47:58;12.23;;;10.83;;
359;SDS011;168;48.872;9.226;2023-12-07T03:50:25;15.50;;;11.90;;
359;SDS011;168;48.872;9.226;2023-12-07T03:52:54;15.60;;;11.87;;
359;SDS011;168;48.872;9.226;2023-12-07T03:55:21;14.13;;;12.20;;
359;SDS011;168;48.872;9.226;2023-12-07T03:57:48;14.17;;;12.00;;
359;SDS011;168;48.872;9.226;2023-12-07T04:00:16;13.47;;;12.03;;
359;SDS011;168;48.872;9.226;2023-12-07T04:02:43;14.83;;;12.03;;
359;SDS011;168;48.872;9.226;2023-12-07T04:05:11;13.50;;;11.40;;
359;SDS011;168;48.872;9.226;2023-12-07T04:07:38;15.53;;;12.43;;
359;SDS011;168;48.872;9.226;2023-12-07T04:10:07;14.93;;;11.87;;
359;SDS011;168;48.872;9.226;2023-12-07T04:12:35;14.87;;;12.17;;
359;SDS011;168;48.872;9.226;2023-12-07T04:15:03;14.07;;;12.40;;
359;SDS011;168;48.872;9.226;2023-12-07T04:17:31;18.10;;;12.70;;
359;SDS011;168;48.872;9.226;2023-12-07T04:19:58;15.93;;;14.23;;
359;SDS011;168;48.872;9.226;2023-12-07T04:22:26;12.77;;;11.30;;
359;SDS011;168;48.872;9.226;2023-12-07T04:24:54;13.80;;;11.30;;
359;SDS011;168;48.872;9.226;2023-12-07T04:27:23;13.50;;;11.83;;
359;SDS011;168;48.872;9.226;2023-12-07T04:29:51;14.10;;;11.50;;
359;SDS011;168;48.872;9.226;2023-12-07T04:32:18;13.43;;;11.47;;
359;SDS011;168;48.872;9.226;2023-12-07T04:34:45;13.30;;;11.90;;
359;SDS011;168;48.872;9.226;2023-12-07T04:37:13;14.37;;;11.43;;
359;SDS011;168;48.872;9.226;2023-12-07T04:39:40;12.93;;;11.10;;
359;SDS011;168;48.872;9.226;2023-12-07T04:42:07;16.43;;;12.33;;
359;SDS011;168;48.872;9.226;2023-12-07T04:44:36;12.93;;;11.17;;
359;SDS011;168;48.872;9.226;2023-12-07T04:47:04;13.53;;;12.03;;
359;SDS011;168;48.872;9.226;2023-12-07T04:49:31;12.40;;;11.10;;
359;SDS011;168;48.872;9.226;2023-12-07T04:51:59;13.03;;;11.70;;
359;SDS011;168;48.872;9.226;2023-12-07T04:54:26;14.00;;;11.90;;
359;SDS011;168;48.872;9.226;2023-12-07T04:56:54;15.50;;;12.00;;
359;SDS011;168;48.872;9.226;2023-12-07T04:59:21;16.83;;;13.30;;
359;SDS011;168;48.872;9.226;2023-12-07T05:01:50;16.13;;;12.63;;
359;SDS011;168;48.872;9.226;2023-12-07T05:04:17;13.63;;;12.23;;
359;SDS011;168;48.872;9.226;2023-12-07T05:06:44;14.97;;;12.77;;
359;SDS011;168;48.872;9.226;2023-12-07T05:09:12;17.23;;;13.70;;
359;SDS011;168;48.872;9.226;2023-12-07T05:11:39;14.00;;;12.60;;
359;SDS011;168;48.872;9.226;2023-12-07T05:14:06;16.30;;;13.93;;
359;SDS011;168;48.872;9.226;2023-12-07T05:16:34;17.93;;;13.27;;
359;SDS011;168;48.872;9.226;2023-12-07T05:19:02;18.20;;;13.13;;
359;SDS011;168;48.872;9.226;2023-12-07T05:21:30;18.27;;;14.40;;
359;SDS011;168;48.872;9.226;2023-12-07T05:23:57;14.90;;;13.30;;
359;SDS011;168;48.872;9.226;2023-12-07T05:26:25;16.10;;;13.03;;
359;SDS011;168;48.872;9.226;2023-12-07T05:28:52;15.07;;;13.37;;
359;SDS011;168;48.872;9.226;2023-12-07T05:31:19;20.23;;;14.30;;
359;SDS011;168;48.872;9.226;2023-12-07T05:33:47;15.33;;;12.80;;
359;SDS011;168;48.872;9.226;2023-12-07T05:36:15;13.60;;;11.67;;
359;SDS011;168;48.872;9.226;2023-12-07T05:38:43;13.97;;;12.40;;
359;SDS011;168;48.872;9.226;2023-12-07T05:41:10;14.87;;;12.97;;
359;SDS011;168;48.872;9.226;2023-12-07T05:43:40;18.83;;;13.93;;
359;SDS011;168;48.872;9.226;2023-12-07T05:46:07;15.90;;;13.47;;
359;SDS011;168;48.872;9.226;2023-12-07T05:48:35;20.47;;;14.07;;
359;SDS011;168;48.872;9.226;2023-12-07T05:51:02;16.60;;;13.23;;
359;SDS011;168;48.872;9.226;2023-12-07T05:53:31;13.90;;;12.00;;
359;SDS011;168;48.872;9.226;2023-12-07T05:55:59;15.03;;;11.83;;
359;SDS011;168;48.872;9.226;2023-12-07T05:58:27;16.40;;;12.63;;
359;SDS011;168;48.872;9.226;2023-12-07T06:00:55;14.90;;;12.63;;
359;SDS011;168;48.872;9.226;2023-12-07T06:03:22;14.33;;;12.80;;
359;SDS011;168;48.872;9.226;2023-12-07T06:05:51;17.27;;;14.00;;
359;SDS011;168;48.872;9.226;2023-12-07T06:08:19;17.70;;;14.00;;
359;SDS011;168;48.872;9.226;2023-12-07T06:10:48;17.13;;;13.83;;
359;SDS011;168;48.872;9.226;2023-12-07T06:13:15;17.73;;;13.53;;
359;SDS011;168;48.872;9.226;2023-12-07T06:15:42;15.70;;;12.90;;
359;SDS011;168;48.872;9.226;2023-12-07T06:18:10;20.40;;;14.60;;
359;SDS011;168;48.872;9.226;2023-12-07T06:20:37;14.00;;;12.00;;
359;SDS011;168;48.872;9.226;2023-12-07T06:23:07;15.00;;;12.80;;
359;SDS011;168;48.872;9.226;2023-12-07T06:25:38;14.77;;;12.97;;
359;SDS011;168;48.872;9.226;2023-12-07T06:28:07;16.97;;;15.03;;
359;SDS011;168;48.872;9.226;2023-12-07T06:30:34;19.43;;;14.10;;
359;SDS011;168;48.872;9.226;2023-12-07T06:33:01;16.80;;;13.73;;
359;SDS011;168;48.872;9.226;2023-12-07T06:35:29;15.33;;;12.80;;
359;SDS011;168;48.872;9.226;2023-12-07T06:37:56;16.30;;;13.77;;
359;SDS011;168;48.872;9.226;2023-12-07T06:40:24;17.60;;;14.00;;
359;SDS011;168;48.872;9.226;2023-12-07T06:42:51;18.03;;;13.63;;
359;SDS011;168;48.872;9.226;2023-12-07T06:45:20;15.60;;;13.57;;
359;SDS011;168;48.872;9.226;2023-12-07T06:47:47;17.73;;;14.53;;
359;SDS011;168;48.872;9.226;2023-12-07T06:50:14;17.47;;;13.93;;
359;SDS011;168;48.872;9.226;2023-12-07T06:52:42;16.20;;;13.87;;
359;SDS011;168;48.872;9.226;2023-12-07T06:55:10;15.97;;;13.40;;
359;SDS011;168;48.872;9.226;2023-12-07T06:57:37;17.10;;;12.93;;
359;SDS011;168;48.872;9.226;2023-12-07T07:00:05;19.13;;;13.27;;
359;SDS011;168;48.872;9.226;2023-12-07T07:02:37;15.80;;;13.23;;
359;SDS011;168;48.872;9.226;2023-12-07T07:05:05;14.60;;;12.87;;
359;SDS011;168;48.872;9.226;2023-12-07T07:07:34;14.97;;;13.17;;
359;SDS011;168;48.872;9.226;2023-12-07T07:10:02;18.80;;;14.87;;
359;SDS011;168;48.872;9.226;2023-12-07T07:12:29;17.93;;;15.00;;
359;SDS011;168;48.872;9.226;2023-12-07T07:14:57;15.90;;;12.53;;
359;SDS011;168;48.872;9.226;2023-12-07T07:17:24;18.70;;;14.37;;
359;SDS011;168;48.872;9.226;2023-12-07T07:19:53;21.70;;;13.50;;
359;SDS011;168;48.872;9.226;2023-12-07T07:22:21;15.80;;;13.27;;
359;SDS011;168;48.872;9.226;2023-12-07T07:24:48;18.00;;;14.90;;
359;SDS011;168;48.872;9.226;2023-12-07T07:27:15;24.53;;;16.87;;
359;SDS011;168;48.872;9.226;2023-12-07T07:29:43;16.27;;;14.17;;
359;SDS011;168;48.872;9.226;2023-12-07T07:32:11;22.20;;;16.23;;
359;SDS011;168;48.872;9.226;2023-12-07T07:34:39;17.47;;;14.83;;
359;SDS011;168;48.872;9.226;2023-12-07T07:37:07;16.87;;;14.20;;
359;SDS011;168;48.872;9.226;2023-12-07T07:39:35;15.83;;;14.00;;
359;SDS011;168;48.872;9.226;2023-12-07T07:42:02;17.13;;;15.10;;
359;SDS011;168;48.872;9.226;2023-12-07T07:44:30;19.87;;;15.67;;
359;SDS011;168;48.872;9.226;2023-12-07T07:46:57;18.97;;;14.63;;
359;SDS011;168;48.872;9.226;2023-12-07T07:49:25;16.73;;;13.17;;
359;SDS011;168;48.872;9.226;2023-12-07T07:51:52;20.60;;;14.53;;
359;SDS011;168;48.872;9.226;2023-12-07T07:54:21;20.20;;;14.70;;
359;SDS011;168;48.872;9.226;2023-12-07T07:56:48;18.77;;;14.83;;
359;SDS011;168;48.872;9.226;2023-12-07T07:59:15;18.27;;;14.90;;
359;SDS011;168;48.872;9.226;2023-12-07T08:01:42;16.03;;;14.20;;
359;SDS011;168;48.872;9.226;2023-12-07T08:04:12;18.37;;;14.93;;
359;SDS011;168;48.872;9.226;2023-12-07T08:06:39;18.30;;;14.80;;
359;SDS011;168;48.872;9.226;2023-12-07T08:09:07;18.83;;;15.53;;
359;SDS011;168;48.872;9.226;2023-12-07T08:11:37;19.10;;;15.33;;
359;SDS011;168;48.872;9.226;2023-12-07T08:14:04;17.97;;;16.00;;
359;SDS011;168;48.872;9.226;2023-12-07T08:16:31;18.23;;;16.07;;
359;SDS011;168;48.872;9.226;2023-12-07T08:18:59;17.13;;;14.90;;
359;SDS011;168;48.872;9.226;2023-12-07T08:21:26;19.43;;;15.87;;
359;SDS011;168;48.872;9.226;2023-12-07T08:23:55;18.67;;;15.47;;
359;SDS011;168;48.872;9.226;2023-12-07T08:26:22;17.07;;;13.70;;
359;SDS011;168;48.872;9.226;2023-12-07T08:28:51;16.90;;;14.23;;
359;SDS011;168;48.872;9.226;2023-12-07T08:31:19;17.37;;;14.30;;
359;SDS011;168;48.872;9.226;2023-12-07T08:33:48;17.17;;;15.10;;
359;SDS011;168;48.872;9.226;2023-12-07T08:36:15;17.20;;;13.87;;
359;SDS011;168;48.872;9.226;2023-12-07T08:38:43;18.17;;;14.80;;
359;SDS011;168;48.872;9.226;2023-12-07T08:41:10;16.20;;;14.10;;
359;SDS011;168;48.872;9.226;2023-12-07T08:43:37;18.87;;;14.60;;
359;SDS011;168;48.872;9.226;2023-12-07T08:46:06;16.70;;;14.60;;
359;SDS011;168;48.872;9.226;2023-12-07T08:48:33;18.50;;;14.90;;
359;SDS011;168;48.872;9.226;2023-12-07T08:51:03;19.07;;;14.80;;
359;SDS011;168;48.872;9.226;2023-12-07T08:53:30;19.00;;;15.10;;
359;SDS011;168;48.872;9.226;2023-12-07T08:55:57;18.77;;;16.77;;
359;SDS011;168;48.872;9.226;2023-12-07T08:58:26;17.40;;;14.63;;
359;SDS011;168;48.872;9.226;2023-12-07T09:00:53;18.80;;;16.80;;
359;SDS011;168;48.872;9.226;2023-12-07T09:03:22;23.97;;;21.47;;
359;SDS011;168;48.872;9.226;2023-12-07T09:05:52;21.70;;;19.50;;
359;SDS011;168;48.872;9.226;2023-12-07T09:08:20;22.00;;;19.70;;
359;SDS011;168;48.872;9.226;2023-12-07T09:10:47;20.17;;;16.47;;
359;SDS011;168;48.872;9.226;2023-12-07T09:13:16;17.83;;;15.70;;
359;SDS011;168;48.872;9.226;2023-12-07T09:15:44;17.07;;;15.30;;
359;SDS011;168;48.872;9.226;2023-12-07T09:18:11;20.30;;;15.33;;
359;SDS011;168;48.872;9.226;2023-12-07T09:20:40;16.27;;;13.60;;
359;SDS011;168;48.872;9.226;2023-12-07T09:23:11;16.20;;;14.10;;
359;SDS011;168;48.872;9.226;2023-12-07T09:25:40;18.63;;;14.50;;
359;SDS011;168;48.872;9.226;2023-12-07T09:28:08;16.07;;;14.30;;
359;SDS011;168;48.872;9.226;2023-12-07T09:30:35;17.10;;;14.50;;
359;SDS011;168;48.872;9.226;2023-12-07T09:33:02;18.87;;;15.10;;
359;SDS011;168;48.872;9.226;2023-12-07T09:35:30;14.80;;;13.30;;
359;SDS011;168;48.872;9.226;2023-12-07T09:38:01;14.67;;;12.93;;
359;SDS011;168;48.872;9.226;2023-12-07T09:40:30;16.20;;;13.83;;
359;SDS011;168;48.872;9.226;2023-12-07T09:42:58;15.20;;;13.60;;
359;SDS011;168;48.872;9.226;2023-12-07T09:45:25;16.97;;;14.50;;
359;SDS011;168;48.872;9.226;2023-12-07T09:47:53;15.20;;;13.60;;
359;SDS011;168;48.872;9.226;2023-12-07T09:50:21;17.47;;;14.20;;
359;SDS011;168;48.872;9.226;2023-12-07T09:52:50;15.70;;;14.10;;
359;SDS011;168;48.872;9.226;2023-12-07T09:55:22;16.00;;;13.97;;
359;SDS011;168;48.872;9.226;2023-12-07T09:57:50;14.80;;;13.20;;
359;SDS011;168;48.872;9.226;2023-12-07T10:00:20;17.97;;;14.87;;
359;SDS011;168;48.872;9.226;2023-12-07T10:02:47;15.30;;;13.40;;
359;SDS011;168;48.872;9.226;2023-12-07T10:05:15;12.83;;;11.53;;
359;SDS011;168;48.872;9.226;2023-12-07T10:07:43;14.17;;;12.73;;
359;SDS011;168;48.872;9.226;2023-12-07T10:10:13;14.30;;;12.03;;
359;SDS011;168;48.872;9.226;2023-12-07T10:12:46;14.63;;;13.10;;
359;SDS011;168;48.872;9.226;2023-12-07T10:15:18;13.17;;;11.13;;
359;SDS011;168;48.872;9.226;2023-12-07T10:17:47;16.70;;;13.17;;
359;SDS011;168;48.872;9.226;2023-12-07T10:20:16;13.43;;;11.80;;
359;SDS011;168;48.872;9.226;2023-12-07T10:22:44;16.20;;;11.37;;
359;SDS011;168;48.872;9.226;2023-12-07T10:25:12;14.00;;;12.40;;
359;SDS011;168;48.872;9.226;2023-12-07T10:27:40;15.00;;;13.10;;
359;SDS011;168;48.872;9.226;2023-12-07T10:30:10;13.30;;;11.70;;
359;SDS011;168;48.872;9.226;2023-12-07T10:32:38;15.37;;;11.50;;
359;SDS011;168;48.872;9.226;2023-12-07T10:35:07;13.63;;;11.20;;
359;SDS011;168;48.872;9.226;2023-12-07T10:37:35;15.67;;;11.47;;
359;SDS011;168;48.872;9.226;2023-12-07T10:40:03;14.03;;;11.20;;
359;SDS011;168;48.872;9.226;2023-12-07T10:42:33;12.57;;;11.20;;
359;SDS011;168;48.872;9.226;2023-12-07T10:45:04;14.77;;;11.00;;
359;SDS011;168;48.872;9.226;2023-12-07T10:47:40;12.93;;;11.30;;
359;SDS011;168;48.872;9.226;2023-12-07T10:50:11;15.63;;;10.97;;
359;SDS011;168;48.872;9.226;2023-12-07T10:52:44;12.50;;;11.20;;
359;SDS011;168;48.872;9.226;2023-12-07T10:55:16;12.10;;;10.33;;
359;SDS011;168;48.872;9.226;2023-12-07T10:57:46;14.77;;;11.57;;
359;SDS011;168;48.872;9.226;2023-12-07T11:00:14;12.40;;;10.53;;
359;SDS011;168;48.872;9.226;2023-12-07T11:02:44;12.90;;;11.60;;
359;SDS011;168;48.872;9.226;2023-12-07T11:05:12;11.43;;;10.23;;
359;SDS011;168;48.872;9.226;2023-12-07T11:07:42;11.73;;;10.57;;
359;SDS011;168;48.872;9.226;2023-12-07T11:10:18;12.00;;;10.80;;
359;SDS011;168;48.872;9.226;2023-12-07T11:12:54;12.60;;;11.30;;
359;SDS011;168;48.872;9.226;2023-12-07T11:15:27;11.57;;;10.47;;
359;SDS011;168;48.872;9.226;2023-12-07T11:17:56;11.77;;;10.40;;
359;SDS011;168;48.872;9.226;2023-12-07T11:20:31;13.17;;;11.77;;
359;SDS011;168;48.872;9.226;2023-12-07T11:23:15;12.37;;;11.07;;
359;SDS011;168;48.872;9.226;2023-12-07T11:25:45;13.37;;;10.90;;
359;SDS011;168;48.872;9.226;2023-12-07T11:28:18;12.60;;;11.30;;
359;SDS011;168;48.872;9.226;2023-12-07T11:30:45;12.00;;;10.80;;
359;SDS011;168;48.872;9.226;2023-12-07T11:33:15;13.70;;;11.73;;
359;SDS011;168;48.872;9.226;2023-12-07T11:38:29;13.40;;;12.00;;
359;SDS011;168;48.872;9.226;2023-12-07T11:40:57;11.63;;;10.50;;
359;SDS011;168;48.872;9.226;2023-12-07T11:43:37;13.30;;;11.70;;
359;SDS011;168;48.872;9.226;2023-12-07T11:46:09;12.50;;;11.13;;
359;SDS011;168;48.872;9.226;2023-12-07T11:48:38;13.93;;;12.47;;
359;SDS011;168;48.872;9.226;2023-12-07T11:51:06;12.37;;;11.20;;
359;SDS011;168;48.872;9.226;2023-12-07T11:53:35;13.37;;;12.17;;
359;SDS011;168;48.872;9.226;2023-12-07T11:56:20;13.00;;;11.33;;
359;SDS011;168;48.872;9.226;2023-12-07T11:58:48;12.20;;;11.00;;
359;SDS011;168;48.872;9.226;2023-12-07T12:01:18;13.20;;;10.87;;
359;SDS011;168;48.872;9.226;2023-12-07T12:03:47;13.57;;;11.50;;
359;SDS011;168;48.872;9.226;2023-12-07T12:06:15;12.73;;;11.50;;
359;SDS011;168;48.872;9.226;2023-12-07T12:08:43;12.30;;;11.00;;
359;SDS011;168;48.872;9.226;2023-12-07T12:11:18;11.13;;;10.10;;
359;SDS011;168;48.872;9.226;2023-12-07T12:13:50;10.60;;;9.57;;
359;SDS011;168;48.872;9.226;2023-12-07T12:16:17;9.93;;;8.93;;
359;SDS011;168;48.872;9.226;2023-12-07T12:18:45;10.47;;;9.40;;
359;SDS011;168;48.872;9.226;2023-12-07T12:21:13;14.80;;;9.10;;
359;SDS011;168;48.872;9.226;2023-12-07T12:23:41;8.97;;;8.07;;
359;SDS011;168;48.872;9.226;2023-12-07T12:26:09;9.17;;;7.93;;
359;SDS011;168;48.872;9.226;2023-12-07T12:28:37;10.10;;;7.63;;
359;SDS011;168;48.872;9.226;2023-12-07T12:31:08;9.83;;;7.80;;
359;SDS011;168;48.872;9.226;2023-12-07T12:33:37;10.50;;;7.77;;
359;SDS011;168;48.872;9.226;2023-12-07T12:36:04;8.60;;;7.80;;
359;SDS011;168;48.872;9.226;2023-12-07T12:38:34;8.30;;;7.20;;
359;SDS011;168;48.872;9.226;2023-12-07T12:41:02;10.00;;;8.27;;
359;SDS011;168;48.872;9.226;2023-12-07T12:43:30;9.53;;;8.10;;
359;SDS011;168;48.872;9.226;2023-12-07T12:45:59;8.57;;;7.40;;
359;SDS011;168;48.872;9.226;2023-12-07T12:48:26;8.97;;;7.93;;
359;SDS011;168;48.872;9.226;2023-12-07T12:50:54;7.83;;;6.97;;
359;SDS011;168;48.872;9.226;2023-12-07T12:53:25;8.70;;;7.10;;
359;SDS011;168;48.872;9.226;2023-12-07T12:55:55;9.80;;;7.57;;
359;SDS011;168;48.872;9.226;2023-12-07T12:58:23;8.63;;;7.70;;
359;SDS011;168;48.872;9.226;2023-12-07T13:00:50;8.20;;;6.70;;
359;SDS011;168;48.872;9.226;2023-12-07T13:03:23;8.83;;;7.20;;
359;SDS011;168;48.872;9.226;2023-12-07T13:05:54;7.47;;;6.73;;
359;SDS011;168;48.872;9.226;2023-12-07T13:08:21;7.90;;;7.10;;
359;SDS011;168;48.872;9.226;2023-12-07T13:10:49;7.97;;;7.10;;
359;SDS011;168;48.872;9.226;2023-12-07T13:13:17;6.70;;;5.73;;
359;SDS011;168;48.872;9.226;2023-12-07T13:15:45;6.00;;;5.30;;
359;SDS011;168;48.872;9.226;2023-12-07T13:18:12;6.30;;;5.33;;
359;SDS011;168;48.872;9.226;2023-12-07T13:20:40;5.93;;;5.33;;
359;SDS011;168;48.872;9.226;2023-12-07T13:23:07;7.60;;;4.80;;
359;SDS011;168;48.872;9.226;2023-12-07T13:25:34;5.40;;;4.83;;
359;SDS011;168;48.872;9.226;2023-12-07T13:28:02;6.77;;;5.33;;
359;SDS011;168;48.872;9.226;2023-12-07T13:30:31;7.27;;;4.97;;
359;SDS011;168;48.872;9.226;2023-12-07T13:33:00;9.30;;;4.90;;
359;SDS011;168;48.872;9.226;2023-12-07T13:35:29;6.37;;;5.10;;
359;SDS011;168;48.872;9.226;2023-12-07T13:37:56;6.87;;;5.30;;
359;SDS011;168;48.872;9.226;2023-12-07T13:40:23;6.33;;;4.87;;
359;SDS011;168;48.872;9.226;2023-12-07T13:42:53;5.60;;;5.00;;
359;SDS011;168;48.872;9.226;2023-12-07T13:45:20;8.80;;;5.20;;
359;SDS011;168;48.872;9.226;2023-12-07T13:47:49;7.40;;;4.73;;
359;SDS011;168;48.872;9.226;2023-12-07T13:50:16;5.63;;;4.47;;
359;SDS011;168;48.872;9.226;2023-12-07T13:52:44;6.43;;;5.10;;
359;SDS011;168;48.872;9.226;2023-12-07T13:55:11;6.17;;;5.27;;
359;SDS011;168;48.872;9.226;2023-12-07T13:57:38;6.63;;;5.97;;
359;SDS011;168;48.872;9.226;2023-12-07T14:00:07;7.70;;;6.07;;
359;SDS011;168;48.872;9.226;2023-12-07T14:02:38;6.13;;;5.20;;
359;SDS011;168;48.872;9.226;2023-12-07T14:05:08;6.10;;;5.50;;
359;SDS011;168;48.872;9.226;2023-12-07T14:07:36;6.13;;;5.30;;
359;SDS011;168;48.872;9.226;2023-12-07T14:10:03;6.00;;;4.53;;
359;SDS011;168;48.872;9.226;2023-12-07T14:12:31;5.80;;;4.40;;
359;SDS011;168;48.872;9.226;2023-12-07T14:15:00;6.67;;;5.10;;
359;SDS011;168;48.872;9.226;2023-12-07T14:17:27;6.77;;;5.70;;
359;SDS011;168;48.872;9.226;2023-12-07T14:20:01;6.77;;;5.50;;
359;SDS011;168;48.872;9.226;2023-12-07T14:22:31;6.20;;;5.10;;
359;SDS011;168;48.872;9.226;2023-12-07T14:24:58;6.93;;;5.27;;
359;SDS011;168;48.872;9.226;2023-12-07T14:27:26;6.80;;;5.23;;
359;SDS011;168;48.872;9.226;2023-12-07T14:29:53;6.13;;;5.53;;
359;SDS011;168;48.872;9.226;2023-12-07T14:32:21;4.80;;;4.30;;
359;SDS011;168;48.872;9.226;2023-12-07T14:34:48;6.10;;;4.27;;
359;SDS011;168;48.872;9.226;2023-12-07T14:37:17;5.30;;;4.30;;
359;SDS011;168;48.872;9.226;2023-12-07T14:39:46;5.00;;;4.20;;
359;SDS011;168;48.872;9.226;2023-12-07T14:42:13;5.00;;;3.87;;
359;SDS011;168;48.872;9.226;2023-12-07T14:44:41;4.30;;;3.87;;
359;SDS011;168;48.872;9.226;2023-12-07T14:47:08;4.97;;;3.50;;
359;SDS011;168;48.872;9.226;2023-12-07T14:49:36;4.20;;;3.50;;
359;SDS011;168;48.872;9.226;2023-12-07T14:52:06;5.47;;;4.10;;
359;SDS011;168;48.872;9.226;2023-12-07T14:54:36;8.03;;;4.70;;
359;SDS011;168;48.872;9.226;2023-12-07T14:57:05;5.50;;;4.13;;
359;SDS011;168;48.872;9.226;2023-12-07T14:59:34;5.37;;;3.60;;
359;SDS011;168;48.872;9.226;2023-12-07T15:02:01;4.13;;;3.73;;
359;SDS011;168;48.872;9.226;2023-12-07T15:04:28;3.50;;;3.10;;
359;SDS011;168;48.872;9.226;2023-12-07T15:06:56;3.50;;;2.93;;
359;SDS011;168;48.872;9.226;2023-12-07T15:09:24;4.40;;;3.50;;
359;SDS011;168;48.872;9.226;2023-12-07T15:11:51;5.77;;;4.43;;
359;SDS011;168;48.872;9.226;2023-12-07T15:14:21;4.80;;;3.37;;
359;SDS011;168;48.872;9.226;2023-12-07T15:16:48;3.60;;;3.20;;
359;SDS011;168;48.872;9.226;2023-12-07T15:19:19;5.10;;;3.13;;
359;SDS011;168;48.872;9.226;2023-12-07T15:21:47;4.80;;;3.30;;
359;SDS011;168;48.872;9.226;2023-12-07T15:24:15;5.10;;;3.90;;
359;SDS011;168;48.872;9.226;2023-12-07T15:26:45;4.80;;;3.67;;
359;SDS011;168;48.872;9.226;2023-12-07T15:29:13;5.20;;;3.67;;
359;SDS011;168;48.872;9.226;2023-12-07T15:31:42;7.23;;;4.00;;
359;SDS011;168;48.872;9.226;2023-12-07T15:34:10;5.70;;;3.70;;
359;SDS011;168;48.872;9.226;2023-12-07T15:36:37;8.20;;;4.33;;